createdAt,value
2017-08-10T00:01:56.570Z,101692.42
2017-08-10T00:04:25.319Z,101687.48
2017-08-10T00:06:53.682Z,101691.41
2017-08-10T00:09:22.812Z,101692.35
2017-08-10T00:11:51.452Z,101694.34
2017-08-10T00:14:19.816Z,101704.35
2017-08-10T00:16:48.216Z,101703.48
2017-08-10T00:19:18.062Z,101699.05
2017-08-10T00:21:46.424Z,101698.25
2017-08-10T00:24:14.795Z,101696.70
2017-08-10T00:26:43.443Z,101691.02
2017-08-10T00:29:11.784Z,101689.16
2017-08-10T00:31:40.133Z,101691.94
2017-08-10T00:34:09.770Z,101701.09
2017-08-10T00:36:38.123Z,101702.94
2017-08-10T00:39:07.246Z,101706.06
2017-08-10T00:41:35.981Z,101713.97
2017-08-10T00:44:04.346Z,101719.14
2017-08-10T00:46:32.713Z,101732.92
2017-08-10T00:49:01.363Z,101734.50
2017-08-10T00:51:29.749Z,101752.44
2017-08-10T00:53:58.108Z,101729.82
2017-08-10T00:56:27.744Z,101724.73
2017-08-10T00:58:56.115Z,101728.48
2017-08-10T01:01:24.456Z,101730.59
2017-08-10T01:03:53.148Z,101736.69
2017-08-10T01:06:21.502Z,101735.13
2017-08-10T01:08:49.876Z,101731.98
2017-08-10T01:11:18.508Z,101734.38
2017-08-10T01:13:46.862Z,101739.37
2017-08-10T01:16:15.220Z,101735.39
2017-08-10T01:18:43.874Z,101746.34
2017-08-10T01:21:12.222Z,101742.36
2017-08-10T01:23:41.343Z,101735.19
2017-08-10T01:26:10.337Z,101734.72
2017-08-10T01:28:38.673Z,101732.05
2017-08-10T01:31:07.025Z,101725.54
2017-08-10T01:33:35.657Z,101719.09
2017-08-10T01:36:04.787Z,101715.29
2017-08-10T01:38:33.123Z,101717.06
2017-08-10T01:41:01.869Z,101715.70
2017-08-10T01:43:30.249Z,101723.34
2017-08-10T01:45:58.600Z,101732.67
2017-08-10T01:48:27.896Z,101720.52
2017-08-10T01:50:56.248Z,101724.92
2017-08-10T01:53:25.402Z,101728.12
2017-08-10T01:55:54.161Z,101738.45
2017-08-10T01:58:22.529Z,101729.48
2017-08-10T02:00:50.895Z,101726.14
2017-08-10T02:03:19.669Z,101730.88
2017-08-10T02:05:48.009Z,101731.09
2017-08-10T02:08:16.355Z,101729.02
2017-08-10T02:10:45.155Z,101728.56
2017-08-10T02:13:13.498Z,101733.64
2017-08-10T02:15:41.874Z,101727.08
2017-08-10T02:18:10.709Z,101719.25
2017-08-10T02:20:39.074Z,101723.69
2017-08-10T02:23:07.430Z,101721.20
2017-08-10T02:25:36.071Z,101717.16
2017-08-10T02:28:04.459Z,101706.16
2017-08-10T02:30:32.821Z,101707.26
2017-08-10T02:33:02.071Z,101704.88
2017-08-10T02:35:30.432Z,101695.55
2017-08-10T02:37:58.788Z,101699.22
2017-08-10T02:40:27.454Z,101703.94
2017-08-10T02:42:55.816Z,101707.38
2017-08-10T02:45:24.165Z,101695.22
2017-08-10T02:47:52.797Z,101695.31
2017-08-10T02:50:21.146Z,101689.41
2017-08-10T02:52:49.546Z,101692.33
2017-08-10T02:55:18.543Z,101682.20
2017-08-10T02:57:46.886Z,101688.52
2017-08-10T03:00:15.263Z,101697.75
2017-08-10T03:02:43.895Z,101709.08
2017-08-10T03:05:12.251Z,101705.87
2017-08-10T03:07:40.622Z,101708.73
2017-08-10T03:10:09.427Z,101712.20
2017-08-10T03:12:37.780Z,101722.60
2017-08-10T03:15:06.121Z,101739.98
2017-08-10T03:17:35.011Z,101756.77
2017-08-10T03:20:03.370Z,101757.80
2017-08-10T03:22:31.749Z,101749.73
2017-08-10T03:25:00.543Z,101747.36
2017-08-10T03:27:28.888Z,101732.28
2017-08-10T03:29:57.266Z,101725.57
2017-08-10T03:32:25.922Z,101726.23
2017-08-10T03:34:54.261Z,101727.58
2017-08-10T03:37:22.633Z,101725.98
2017-08-10T03:39:51.363Z,101723.59
2017-08-10T03:42:19.712Z,101731.80
2017-08-10T03:44:48.082Z,101723.47
2017-08-10T03:47:16.717Z,101708.88
2017-08-10T03:49:45.087Z,101715.19
2017-08-10T03:52:13.443Z,101706.54
2017-08-10T03:54:42.317Z,101695.73
2017-08-10T03:57:10.675Z,101697.08
2017-08-10T03:59:39.028Z,101690.31
2017-08-10T04:02:07.730Z,101695.64
2017-08-10T04:04:36.089Z,101692.08
2017-08-10T04:07:04.445Z,101685.97
2017-08-10T04:09:33.103Z,101692.94
2017-08-10T04:12:01.442Z,101692.72
2017-08-10T04:14:29.798Z,101702.95
2017-08-10T04:16:58.419Z,101700.78
2017-08-10T04:19:26.769Z,101696.60
2017-08-10T04:21:55.167Z,101693.30
2017-08-10T04:24:23.886Z,101689.22
2017-08-10T04:26:52.230Z,101697.97
2017-08-10T04:29:20.578Z,101685.15
2017-08-10T04:31:49.563Z,101687.09
2017-08-10T04:34:17.947Z,101683.53
2017-08-10T04:36:46.309Z,101692.56
2017-08-10T04:39:14.998Z,101697.75
2017-08-10T04:41:43.455Z,101698.78
2017-08-10T04:44:11.857Z,101705.15
2017-08-10T04:46:40.610Z,101709.14
2017-08-10T04:49:08.978Z,101704.91
2017-08-10T04:51:37.317Z,101702.52
2017-08-10T04:54:06.095Z,101705.31
2017-08-10T04:56:34.453Z,101708.77
2017-08-10T04:59:02.803Z,101704.18
2017-08-10T05:01:31.714Z,101708.05
2017-08-10T05:04:00.068Z,101710.48
2017-08-10T05:06:28.464Z,101721.45
2017-08-10T05:08:57.782Z,101719.33
2017-08-10T05:11:26.145Z,101719.97
2017-08-10T05:13:54.488Z,101724.77
2017-08-10T05:16:23.125Z,101733.92
2017-08-10T05:18:51.481Z,101746.67
2017-08-10T05:21:19.827Z,101752.14
2017-08-10T05:23:48.471Z,101755.80
2017-08-10T05:26:16.856Z,101759.03
2017-08-10T05:28:45.235Z,101753.33
2017-08-10T05:31:14.318Z,101759.05
2017-08-10T05:33:42.673Z,101763.45
2017-08-10T05:36:11.065Z,101766.22
2017-08-10T05:38:39.702Z,101773.81
2017-08-10T05:41:08.124Z,101764.22
2017-08-10T05:43:36.481Z,101770.77
2017-08-10T05:46:05.120Z,101778.38
2017-08-10T05:48:33.466Z,101777.82
2017-08-10T05:51:01.855Z,101791.75
2017-08-10T05:53:31.406Z,101796.50
2017-08-10T05:55:59.751Z,101807.56
2017-08-10T05:58:28.122Z,101822.69
2017-08-10T06:00:56.748Z,101822.52
2017-08-10T06:03:25.087Z,101803.58
2017-08-10T06:05:54.216Z,101792.09
2017-08-10T06:08:22.983Z,101785.58
2017-08-10T06:10:51.326Z,101781.54
2017-08-10T06:13:19.678Z,101786.84
2017-08-10T06:15:48.624Z,101782.05
2017-08-10T06:18:16.977Z,101797.20
2017-08-10T06:24:28.825Z,101782.50
2017-08-10T06:27:01.153Z,101781.50
2017-08-10T06:29:30.158Z,101780.04
2017-08-10T06:32:00.995Z,101792.44
2017-08-10T06:34:30.516Z,101803.06
2017-08-10T06:36:58.879Z,101808.24
2017-08-10T06:39:29.089Z,101809.13
2017-08-10T06:41:57.462Z,101813.81
2017-08-10T06:44:29.442Z,101818.27
2017-08-10T06:46:58.168Z,101819.17
2017-08-10T06:49:27.582Z,101823.80
2017-08-10T06:51:55.937Z,101827.15
2017-08-10T06:54:25.586Z,101825.08
2017-08-10T06:56:56.073Z,101831.47
2017-08-10T06:59:24.464Z,101829.73
2017-08-10T07:01:53.186Z,101822.05
2017-08-10T07:04:21.556Z,101820.88
2017-08-10T07:06:49.931Z,101817.88
2017-08-10T07:09:18.593Z,101816.80
2017-08-10T07:11:47.707Z,101811.20
2017-08-10T07:14:16.763Z,101823.80
2017-08-10T07:16:45.851Z,101820.50
2017-08-10T07:19:14.252Z,101824.77
2017-08-10T07:21:42.903Z,101835.39
2017-08-10T07:24:12.319Z,101832.36
2017-08-10T07:26:40.904Z,101834.89
2017-08-10T07:29:09.434Z,101839.31
2017-08-10T07:31:38.343Z,101837.30
2017-08-10T07:34:06.724Z,101826.41
2017-08-10T07:36:35.924Z,101835.66
2017-08-10T07:39:04.763Z,101827.77
2017-08-10T07:41:33.537Z,101821.48
2017-08-10T07:44:02.882Z,101818.95
2017-08-10T07:46:32.413Z,101812.30
2017-08-10T07:49:01.580Z,101813.55
2017-08-10T07:51:30.542Z,101816.87
2017-08-10T07:53:59.464Z,101816.87
2017-08-10T07:56:27.890Z,101827.41
2017-08-10T07:58:56.275Z,101831.11
2017-08-10T08:01:25.031Z,101831.38
2017-08-10T08:03:53.496Z,101841.73
2017-08-10T08:06:21.838Z,101841.72
2017-08-10T08:08:50.663Z,101847.64
2017-08-10T08:11:19.248Z,101836.06
2017-08-10T08:13:47.598Z,101842.31
2017-08-10T08:16:16.844Z,101846.86
2017-08-10T08:18:45.943Z,101853.02
2017-08-10T08:21:15.017Z,101854.98
2017-08-10T08:23:44.923Z,101858.01
2017-08-10T08:26:13.303Z,101858.48
2017-08-10T08:28:41.673Z,101867.59
2017-08-10T08:31:11.322Z,101863.36
2017-08-10T08:33:39.694Z,101870.53
2017-08-10T08:36:08.061Z,101873.77
2017-08-10T08:38:36.670Z,101883.14
2017-08-10T08:41:05.038Z,101893.06
2017-08-10T08:43:33.394Z,101886.12
2017-08-10T08:46:02.393Z,101886.74
2017-08-10T08:48:30.768Z,101890.45
2017-08-10T08:50:59.120Z,101896.92
2017-08-10T08:53:27.861Z,101897.53
2017-08-10T08:55:56.238Z,101893.92
2017-08-10T08:58:24.616Z,101892.11
2017-08-10T09:00:53.308Z,101889.22
2017-08-10T09:03:21.674Z,101898.31
2017-08-10T09:05:50.027Z,101898.81
2017-08-10T09:08:18.968Z,101897.80
2017-08-10T09:10:47.349Z,101900.78
2017-08-10T09:13:15.707Z,101899.89
2017-08-10T09:15:44.497Z,101895.48
2017-08-10T09:18:12.830Z,101896.29
2017-08-10T09:20:41.226Z,101900.77
2017-08-10T09:23:10.045Z,101904.92
2017-08-10T09:25:38.387Z,101901.72
2017-08-10T09:28:06.788Z,101899.47
2017-08-10T09:30:35.635Z,101895.52
2017-08-10T09:33:04.025Z,101890.61
2017-08-10T09:35:32.421Z,101881.97
2017-08-10T09:38:01.380Z,101883.19
2017-08-10T09:40:29.734Z,101879.98
2017-08-10T09:42:58.118Z,101880.57
2017-08-10T09:45:26.987Z,101883.11
2017-08-10T09:47:55.384Z,101877.83
2017-08-10T09:50:23.728Z,101882.27
2017-08-10T09:52:52.487Z,101881.88
2017-08-10T09:55:20.853Z,101883.67
2017-08-10T09:57:49.209Z,101874.45
2017-08-10T10:00:18.070Z,101882.41
2017-08-10T10:02:46.460Z,101890.77
2017-08-10T10:05:14.822Z,101884.64
2017-08-10T10:07:43.474Z,101884.30
2017-08-10T10:10:18.549Z,101883.92
2017-08-10T10:12:47.876Z,101881.38
2017-08-10T10:15:16.319Z,101884.53
2017-08-10T10:17:44.770Z,101886.84
2017-08-10T10:20:13.707Z,101884.64
2017-08-10T10:22:42.070Z,101880.38
2017-08-10T10:25:11.194Z,101876.64
2017-08-10T10:27:39.967Z,101877.99
2017-08-10T10:30:08.324Z,101876.95
2017-08-10T10:32:37.849Z,101868.80
2017-08-10T10:35:06.859Z,101862.21
2017-08-10T10:37:35.223Z,101868.45
2017-08-10T10:40:03.582Z,101863.81
2017-08-10T10:42:32.291Z,101861.45
2017-08-10T10:45:00.649Z,101851.76
2017-08-10T10:47:28.991Z,101842.49
2017-08-10T10:49:57.670Z,101848.98
2017-08-10T10:52:26.062Z,101845.75
2017-08-10T10:54:54.412Z,101847.66
2017-08-10T10:57:23.247Z,101861.19
2017-08-10T10:59:51.586Z,101861.05
2017-08-10T11:02:19.969Z,101862.84
2017-08-10T11:04:48.685Z,101866.46
2017-08-10T11:07:17.099Z,101864.86
2017-08-10T11:09:45.442Z,101868.10
2017-08-10T11:12:14.302Z,101863.08
2017-08-10T11:14:42.714Z,101870.31
2017-08-10T11:17:11.081Z,101872.77
2017-08-10T11:19:39.955Z,101871.61
2017-08-10T11:22:08.446Z,101873.50
2017-08-10T11:24:36.867Z,101877.32
2017-08-10T11:27:05.564Z,101879.79
2017-08-10T11:29:33.942Z,101881.39
2017-08-10T11:32:02.358Z,101884.82
2017-08-10T11:34:31.457Z,101878.84
2017-08-10T11:36:59.833Z,101885.44
2017-08-10T11:39:28.198Z,101888.59
2017-08-10T11:41:57.160Z,101885.89
2017-08-10T11:44:26.331Z,101885.61
2017-08-10T11:46:54.771Z,101882.33
2017-08-10T11:49:23.551Z,101890.36
2017-08-10T11:51:51.923Z,101884.86
2017-08-10T11:54:20.281Z,101889.88
2017-08-10T11:56:49.009Z,101877.96
2017-08-10T11:59:17.406Z,101872.41
2017-08-10T12:01:45.751Z,101855.97
2017-08-10T12:04:15.234Z,101861.94
2017-08-10T12:06:43.606Z,101868.13
2017-08-10T12:09:11.951Z,101856.98
2017-08-10T12:11:40.621Z,101855.06
2017-08-10T12:14:09.026Z,101845.34
2017-08-10T12:16:37.401Z,101849.58
2017-08-10T12:19:06.068Z,101848.61
2017-08-10T12:21:34.444Z,101861.44
2017-08-10T12:24:02.812Z,101850.47
2017-08-10T12:26:31.615Z,101845.11
2017-08-10T12:28:59.949Z,101834.69
2017-08-10T12:31:29.103Z,101828.49
2017-08-10T12:33:57.769Z,101834.98
2017-08-10T12:36:26.382Z,101825.42
2017-08-10T12:38:54.727Z,101819.94
2017-08-10T12:41:23.356Z,101824.17
2017-08-10T12:43:51.781Z,101815.83
2017-08-10T12:46:20.147Z,101818.45
2017-08-10T12:48:48.995Z,101827.13
2017-08-10T12:51:17.333Z,101831.95
2017-08-10T12:53:45.683Z,101834.90
2017-08-10T12:56:14.557Z,101825.48
2017-08-10T12:58:42.971Z,101822.50
2017-08-10T13:01:11.306Z,101826.36
2017-08-10T13:03:40.004Z,101827.84
2017-08-10T13:06:08.341Z,101830.19
2017-08-10T13:08:36.701Z,101824.45
2017-08-10T13:11:05.441Z,101815.77
2017-08-10T13:13:33.934Z,101818.89
2017-08-10T13:16:02.341Z,101825.17
2017-08-10T13:18:31.802Z,101828.45
2017-08-10T13:21:00.171Z,101825.56
2017-08-10T13:23:28.520Z,101826.26
2017-08-10T13:25:57.221Z,101829.79
2017-08-10T13:28:25.574Z,101825.66
2017-08-10T13:30:53.943Z,101832.07
2017-08-10T13:33:22.740Z,101824.41
2017-08-10T13:35:51.857Z,101828.84
2017-08-10T13:38:20.193Z,101823.59
2017-08-10T13:40:49.197Z,101816.08
2017-08-10T13:43:17.576Z,101816.92
2017-08-10T13:45:45.939Z,101822.78
2017-08-10T13:48:14.596Z,101823.88
2017-08-10T13:50:42.961Z,101823.56
2017-08-10T13:53:11.326Z,101819.52
2017-08-10T13:55:40.246Z,101814.50
2017-08-10T13:58:08.619Z,101813.54
2017-08-10T14:00:37.002Z,101812.35
2017-08-10T14:03:05.749Z,101811.98
2017-08-10T14:05:34.103Z,101801.94
2017-08-10T14:08:02.492Z,101797.66
2017-08-10T14:10:31.156Z,101806.62
2017-08-10T14:12:59.513Z,101811.45
2017-08-10T14:15:27.863Z,101813.25
2017-08-10T14:17:57.190Z,101822.64
2017-08-10T14:20:25.598Z,101827.95
2017-08-10T14:22:53.973Z,101829.45
2017-08-10T14:25:22.629Z,101825.49
2017-08-10T14:27:50.988Z,101822.03
2017-08-10T14:30:19.363Z,101820.52
2017-08-10T14:32:48.020Z,101815.89
2017-08-10T14:35:17.581Z,101819.34
2017-08-10T14:37:46.527Z,101813.36
2017-08-10T14:40:15.314Z,101814.39
2017-08-10T14:42:43.675Z,101798.67
2017-08-10T14:45:12.052Z,101787.69
2017-08-10T14:47:40.805Z,101776.06
2017-08-10T14:50:09.166Z,101775.20
2017-08-10T14:52:37.730Z,101774.77
2017-08-10T14:55:06.456Z,101778.66
2017-08-10T14:57:34.825Z,101776.93
2017-08-10T15:00:03.198Z,101778.03
2017-08-10T15:02:31.993Z,101771.70
2017-08-10T15:05:00.346Z,101774.95
2017-08-10T15:07:28.718Z,101770.69
2017-08-10T15:09:58.392Z,101768.48
2017-08-10T15:12:26.734Z,101772.48
2017-08-10T15:14:55.123Z,101771.17
2017-08-10T15:17:23.903Z,101777.91
2017-08-10T15:19:52.298Z,101778.02
2017-08-10T15:22:20.806Z,101785.51
2017-08-10T15:24:49.489Z,101786.42
2017-08-10T15:27:17.905Z,101789.73
2017-08-10T15:29:46.282Z,101789.09
2017-08-10T15:32:15.872Z,101783.61
2017-08-10T15:34:44.225Z,101788.78
2017-08-10T15:37:12.606Z,101784.14
2017-08-10T15:39:41.379Z,101775.30
2017-08-10T15:42:09.769Z,101774.74
2017-08-10T15:44:38.187Z,101771.09
2017-08-10T15:47:06.978Z,101763.59
2017-08-10T15:49:35.357Z,101756.27
2017-08-10T15:52:03.731Z,101748.13
2017-08-10T15:54:32.674Z,101754.31
2017-08-10T15:57:01.031Z,101754.39
2017-08-10T15:59:30.169Z,101750.41
2017-08-10T16:01:58.934Z,101750.28
2017-08-10T16:04:27.311Z,101747.06
2017-08-10T16:06:55.666Z,101759.84
2017-08-10T16:09:24.589Z,101750.80
2017-08-10T16:11:52.981Z,101745.62
2017-08-10T16:14:21.359Z,101743.09
2017-08-10T16:16:50.233Z,101738.30
2017-08-10T16:19:18.588Z,101742.72
2017-08-10T16:21:47.721Z,101734.05
2017-08-10T16:24:16.499Z,101734.80
2017-08-10T16:26:44.864Z,101730.79
2017-08-10T16:29:13.217Z,101734.14
2017-08-10T16:31:42.350Z,101733.20
2017-08-10T16:34:10.715Z,101732.80
2017-08-10T16:36:39.843Z,101724.86
2017-08-10T16:39:08.520Z,101733.67
2017-08-10T16:41:36.921Z,101737.92
2017-08-10T16:44:05.301Z,101732.98
2017-08-10T16:46:34.297Z,101732.80
2017-08-10T16:49:02.642Z,101735.56
2017-08-10T16:51:31.016Z,101733.84
2017-08-10T16:53:59.727Z,101737.71
2017-08-10T16:56:28.121Z,101733.84
2017-08-10T16:58:56.463Z,101736.72
2017-08-10T17:01:25.346Z,101736.42
2017-08-10T17:03:53.743Z,101735.27
2017-08-10T17:06:22.138Z,101732.19
2017-08-10T17:08:51.045Z,101738.79
2017-08-10T17:11:19.412Z,101736.69
2017-08-10T17:13:47.762Z,101738.13
2017-08-10T17:16:16.600Z,101729.34
2017-08-10T17:18:44.949Z,101728.63
2017-08-10T17:21:13.311Z,101736.58
2017-08-10T17:23:42.106Z,101739.33
2017-08-10T17:26:10.481Z,101744.97
2017-08-10T17:28:38.851Z,101749.73
2017-08-10T17:31:07.529Z,101753.98
2017-08-10T17:33:35.899Z,101752.73
2017-08-10T17:36:05.018Z,101745.91
2017-08-10T17:38:34.002Z,101744.38
2017-08-10T17:41:02.373Z,101735.08
2017-08-10T17:43:30.739Z,101743.56
2017-08-10T17:45:59.417Z,101738.68
2017-08-10T17:48:27.784Z,101724.73
2017-08-10T17:50:56.160Z,101720.44
2017-08-10T17:53:24.920Z,101719.76
2017-08-10T17:55:53.325Z,101714.48
2017-08-10T17:58:21.692Z,101711.16
2017-08-10T18:00:51.498Z,101709.59
2017-08-10T18:03:19.879Z,101713.36
2017-08-10T18:05:48.243Z,101726.52
2017-08-10T18:08:16.904Z,101731.66
2017-08-10T18:10:46.035Z,101730.62
2017-08-10T18:13:14.405Z,101738.16
2017-08-10T18:15:43.060Z,101731.10
2017-08-10T18:18:11.415Z,101731.79
2017-08-10T18:20:39.792Z,101735.48
2017-08-10T18:23:08.582Z,101745.34
2017-08-10T18:25:36.923Z,101741.59
2017-08-10T18:28:05.269Z,101738.53
2017-08-10T18:30:34.200Z,101734.02
2017-08-10T18:33:02.559Z,101737.38
2017-08-10T18:35:30.964Z,101742.20
2017-08-10T18:37:59.606Z,101729.42
2017-08-10T18:40:27.956Z,101720.05
2017-08-10T18:42:56.336Z,101715.56
2017-08-10T18:45:25.294Z,101721.71
2017-08-10T18:47:53.635Z,101718.99
2017-08-10T18:50:22.765Z,101715.54
2017-08-10T18:52:51.416Z,101728.92
2017-08-10T18:55:20.506Z,101726.73
2017-08-10T18:57:49.610Z,101727.70
2017-08-10T19:00:19.250Z,101737.47
2017-08-10T19:02:47.602Z,101741.02
2017-08-10T19:05:15.971Z,101735.09
2017-08-10T19:07:45.119Z,101736.70
2017-08-10T19:10:13.533Z,101732.59
2017-08-10T19:12:41.905Z,101735.01
2017-08-10T19:15:10.766Z,101726.44
2017-08-10T19:17:39.129Z,101721.05
2017-08-10T19:20:07.470Z,101714.82
2017-08-10T19:22:36.132Z,101713.97
2017-08-10T19:25:04.495Z,101725.92
2017-08-10T19:27:32.859Z,101721.03
2017-08-10T19:30:01.874Z,101704.61
2017-08-10T19:32:30.223Z,101711.77
2017-08-10T19:34:58.575Z,101718.72
2017-08-10T19:37:27.432Z,101726.52
2017-08-10T19:39:55.790Z,101717.99
2017-08-10T19:42:24.140Z,101714.76
2017-08-10T19:44:52.757Z,101723.17
2017-08-10T19:47:21.127Z,101725.23
2017-08-10T19:49:49.478Z,101713.63
2017-08-10T19:52:18.395Z,101717.34
2017-08-10T19:54:46.782Z,101718.81
2017-08-10T19:57:15.138Z,101717.72
2017-08-10T19:59:43.836Z,101716.61
2017-08-10T20:02:12.209Z,101715.68
2017-08-10T20:04:40.588Z,101713.27
2017-08-10T20:07:09.472Z,101718.25
2017-08-10T20:09:37.838Z,101724.55
2017-08-10T20:12:06.977Z,101729.55
2017-08-10T20:14:35.764Z,101735.83
2017-08-10T20:17:04.153Z,101740.13
2017-08-10T20:19:32.533Z,101736.08
2017-08-10T20:22:01.399Z,101711.23
2017-08-10T20:24:29.788Z,101717.02
2017-08-10T20:26:58.157Z,101736.16
2017-08-10T20:29:26.840Z,101730.31
2017-08-10T20:31:55.174Z,101728.22
2017-08-10T20:34:23.545Z,101716.42
2017-08-10T20:36:52.519Z,101705.91
2017-08-10T20:39:20.858Z,101711.13
2017-08-10T20:41:49.212Z,101720.37
2017-08-10T20:44:17.837Z,101711.47
2017-08-10T20:46:46.262Z,101705.43
2017-08-10T20:49:14.685Z,101705.34
2017-08-10T20:51:43.581Z,101686.81
2017-08-10T20:54:11.974Z,101664.00
2017-08-10T20:56:40.372Z,101671.18
2017-08-10T20:59:09.156Z,101668.45
2017-08-10T21:01:37.588Z,101671.65
2017-08-10T21:04:06.726Z,101689.03
2017-08-10T21:06:35.500Z,101684.09
2017-08-10T21:09:08.127Z,101692.68
2017-08-10T21:11:36.757Z,101696.29
2017-08-10T21:14:05.136Z,101687.80
2017-08-10T21:16:33.499Z,101686.58
2017-08-10T21:19:02.194Z,101689.27
2017-08-10T21:21:30.555Z,101678.14
2017-08-10T21:23:59.699Z,101668.99
2017-08-10T21:26:28.400Z,101672.34
2017-08-10T21:28:56.775Z,101668.74
2017-08-10T21:31:25.114Z,101674.16
2017-08-10T21:33:54.542Z,101669.48
2017-08-10T21:36:22.942Z,101663.12
2017-08-10T21:38:51.383Z,101662.31
2017-08-10T21:41:20.135Z,101663.99
2017-08-10T21:43:48.507Z,101658.39
2017-08-10T21:46:16.860Z,101658.48
2017-08-10T21:48:45.593Z,101648.09
2017-08-10T21:51:13.970Z,101634.31
2017-08-10T21:53:42.332Z,101638.34
2017-08-10T21:56:11.080Z,101644.27
2017-08-10T21:58:39.463Z,101638.98
2017-08-10T22:01:07.837Z,101633.36
2017-08-10T22:03:36.552Z,101634.84
2017-08-10T22:06:04.899Z,101641.41
2017-08-10T22:08:33.270Z,101645.11
2017-08-10T22:11:01.955Z,101648.42
2017-08-10T22:13:30.367Z,101637.49
2017-08-10T22:15:58.719Z,101631.46
2017-08-10T22:18:27.610Z,101633.25
2017-08-10T22:20:55.980Z,101636.09
2017-08-10T22:23:24.336Z,101641.73
2017-08-10T22:25:53.132Z,101636.44
2017-08-10T22:28:22.249Z,101642.14
2017-08-10T22:30:50.608Z,101645.97
2017-08-10T22:33:19.549Z,101641.20
2017-08-10T22:35:47.918Z,101639.70
2017-08-10T22:38:16.287Z,101634.52
2017-08-10T22:40:44.906Z,101634.63
2017-08-10T22:43:13.287Z,101642.14
2017-08-10T22:45:41.646Z,101648.51
2017-08-10T22:48:10.436Z,101655.31
2017-08-10T22:50:38.762Z,101664.41
2017-08-10T22:53:07.115Z,101666.00
2017-08-10T22:55:35.821Z,101672.70
2017-08-10T22:58:04.227Z,101668.34
2017-08-10T23:00:33.337Z,101677.14
2017-08-10T23:03:01.980Z,101663.77
2017-08-10T23:05:30.344Z,101670.45
2017-08-10T23:07:58.779Z,101675.02
2017-08-10T23:10:27.544Z,101673.00
2017-08-10T23:12:55.987Z,101670.46
2017-08-10T23:15:24.326Z,101661.98
2017-08-10T23:17:52.981Z,101653.17
2017-08-10T23:20:21.326Z,101652.32
2017-08-10T23:22:49.671Z,101655.39
2017-08-10T23:25:18.453Z,101642.37
2017-08-10T23:27:46.808Z,101639.08
2017-08-10T23:30:15.938Z,101639.30
2017-08-10T23:32:44.615Z,101641.00
2017-08-10T23:35:12.985Z,101641.10
2017-08-10T23:37:41.366Z,101639.61
2017-08-10T23:40:10.125Z,101649.79
2017-08-10T23:42:38.469Z,101645.12
2017-08-10T23:45:06.860Z,101641.31
2017-08-10T23:47:35.620Z,101647.99
2017-08-10T23:50:03.964Z,101643.66
2017-08-10T23:52:32.321Z,101641.31
2017-08-10T23:55:01.108Z,101638.86
2017-08-10T23:57:29.465Z,101633.47
2017-08-10T23:59:57.807Z,101624.35
